Time;durP1;ratioP1;P1;durP2;ratioP2;P2;SDS_P1;SDS_P2;PMS_P1;PMS_P2;Temp;Humidity;BMP_temperature;BMP_pressure;BME280_temperature;BME280_humidity;BME280_pressure;Samples;Min_cycle;Max_cycle;Signal;HPM_P1;HPM_P2
2021/03/05 00:01:15;;;;;;;19.90;10.73;;;5.60;99.90;;;;;;5084460;28;20540;-57
2021/03/05 00:03:40;;;;;;;17.73;11.40;;;5.50;99.90;;;;;;5082698;28;20199;-57
2021/03/05 00:06:06;;;;;;;20.20;11.03;;;5.40;99.90;;;;;;5074610;28;20215;-57
2021/03/05 00:08:32;;;;;;;19.23;12.37;;;5.30;99.90;;;;;;5087692;28;20281;-57
2021/03/05 00:10:58;;;;;;;14.77;10.00;;;5.30;99.90;;;;;;5079531;28;20183;-57
2021/03/05 00:13:24;;;;;;;21.53;10.60;;;3.50;99.90;;;;;;5080698;28;20301;-57
2021/03/05 00:15:51;;;;;;;23.63;11.00;;;5.20;99.90;;;;;;5078800;28;20638;-57
2021/03/05 00:18:17;;;;;;;18.93;10.47;;;5.20;99.90;;;;;;5081207;28;20939;-57
2021/03/05 00:20:46;;;;;;;16.60;9.97;;;5.20;99.90;;;;;;5083103;28;20531;-57
2021/03/05 00:23:12;;;;;;;25.13;12.67;;;5.20;99.90;;;;;;5081286;28;20490;-57
2021/03/05 00:25:37;;;;;;;16.83;9.60;;;5.00;99.90;;;;;;5086498;28;20464;-57
2021/03/05 00:28:04;;;;;;;20.27;11.57;;;5.10;99.90;;;;;;5073761;28;20473;-57
2021/03/05 00:30:29;;;;;;;20.60;11.40;;;5.10;99.90;;;;;;5073690;28;20627;-58
2021/03/05 00:32:55;;;;;;;19.17;10.90;;;5.10;99.90;;;;;;5078516;28;20510;-57
2021/03/05 00:35:21;;;;;;;16.93;10.30;;;5.20;99.90;;;;;;5079222;28;20441;-58
2021/03/05 00:37:47;;;;;;;19.97;11.03;;;;;;;;;;5083336;28;20436;-57
2021/03/05 00:40:15;;;;;;;18.20;10.40;;;6.10;99.90;;;;;;5071978;28;20229;-57
2021/03/05 00:42:42;;;;;;;18.97;10.03;;;5.50;99.90;;;;;;5090486;28;20444;-57
2021/03/05 00:45:10;;;;;;;17.23;10.03;;;5.30;99.90;;;;;;5084183;28;20779;-57
2021/03/05 00:47:36;;;;;;;21.07;9.80;;;5.30;99.90;;;;;;5081745;28;20887;-57
2021/03/05 00:50:05;;;;;;;19.20;11.30;;;5.20;99.90;;;;;;5074810;28;20992;-57
2021/03/05 00:52:31;;;;;;;19.37;10.20;;;5.30;99.90;;;;;;5081527;28;20447;-57
2021/03/05 00:54:57;;;;;;;20.10;11.30;;;5.10;99.90;;;;;;5079193;28;20483;-57
2021/03/05 00:57:23;;;;;;;20.33;11.13;;;;;;;;;;5072206;28;20274;-57
2021/03/05 00:59:49;;;;;;;18.13;11.07;;;5.20;99.90;;;;;;5072547;28;20440;-57
2021/03/05 01:02:14;;;;;;;22.33;11.53;;;5.20;99.90;;;;;;5088127;28;20568;-57
2021/03/05 01:04:40;;;;;;;20.70;10.60;;;5.30;99.90;;;;;;5078274;28;20180;-57
2021/03/05 01:07:06;;;;;;;19.70;11.20;;;5.30;99.90;;;;;;5080584;28;20214;-57
2021/03/05 01:09:32;;;;;;;20.03;12.27;;;;;;;;;;5077354;28;20206;-57
2021/03/05 01:11:57;;;;;;;22.20;12.40;;;5.40;99.90;;;;;;5074570;28;20469;-57
2021/03/05 01:14:23;;;;;;;21.93;12.70;;;5.50;99.90;;;;;;5077264;28;20456;-57
2021/03/05 01:16:49;;;;;;;16.87;11.50;;;5.40;99.90;;;;;;5079993;28;20179;-57
2021/03/05 01:19:15;;;;;;;26.07;14.20;;;5.40;99.90;;;;;;5078681;28;20184;-57
2021/03/05 01:21:41;;;;;;;20.57;12.70;;;5.40;99.90;;;;;;5080215;28;20217;-57
2021/03/05 01:24:07;;;;;;;19.23;11.73;;;5.20;99.90;;;;;;5081794;28;20461;-57
2021/03/05 01:26:33;;;;;;;23.20;12.73;;;5.30;99.90;;;;;;5084997;28;20839;-57
2021/03/05 01:28:59;;;;;;;20.10;11.37;;;5.30;99.90;;;;;;5079996;28;20523;-58
2021/03/05 01:31:25;;;;;;;22.50;13.63;;;5.30;99.90;;;;;;5076995;28;20507;-57
2021/03/05 01:33:51;;;;;;;22.60;13.23;;;5.30;99.90;;;;;;5081334;28;20171;-58
2021/03/05 01:36:16;;;;;;;20.60;11.70;;;5.30;99.90;;;;;;5082999;28;20449;-57
2021/03/05 01:38:42;;;;;;;22.03;13.50;;;5.40;99.90;;;;;;5079544;28;20191;-58
2021/03/05 01:41:07;;;;;;;23.87;14.20;;;5.50;99.90;;;;;;5079419;28;20271;-57
2021/03/05 01:43:36;;;;;;;23.27;13.60;;;5.50;99.90;;;;;;5094192;28;20178;-58
2021/03/05 01:46:02;;;;;;;21.40;12.87;;;5.50;99.90;;;;;;5077411;28;20796;-57
2021/03/05 01:48:28;;;;;;;22.90;12.50;;;5.50;99.90;;;;;;5081476;28;21006;-57
2021/03/05 01:50:54;;;;;;;20.30;12.97;;;5.60;99.90;;;;;;5078835;28;20433;-57
2021/03/05 01:53:21;;;;;;;22.93;12.67;;;5.60;99.90;;;;;;5081679;28;20539;-57
2021/03/05 01:55:47;;;;;;;25.10;12.77;;;;;;;;;;5080044;28;20232;-57
2021/03/05 01:58:13;;;;;;;19.47;12.40;;;5.50;99.90;;;;;;5085604;28;20528;-58
2021/03/05 02:00:42;;;;;;;19.77;11.63;;;5.50;99.90;;;;;;5086917;28;20436;-57
2021/03/05 02:03:08;;;;;;;18.93;11.40;;;5.50;99.90;;;;;;5076817;28;20460;-57
2021/03/05 02:05:39;;;;;;;19.67;10.80;;;5.50;99.90;;;;;;5076134;28;20556;-58
2021/03/05 02:08:07;;;;;;;16.27;10.30;;;5.50;99.90;;;;;;5065778;28;20437;-57
2021/03/05 02:10:32;;;;;;;19.37;11.50;;;5.50;99.90;;;;;;5088273;28;20794;-58
2021/03/05 02:12:58;;;;;;;16.77;9.67;;;5.60;99.90;;;;;;5079240;28;20430;-57
2021/03/05 02:15:24;;;;;;;18.40;9.87;;;5.50;99.90;;;;;;5091378;28;21202;-58
2021/03/05 02:18:19;;;;;;;15.57;10.10;;;5.50;99.90;;;;;;5075998;28;20613;-57
2021/03/05 02:21:14;;;;;;;16.53;10.27;;;5.50;99.90;;;;;;5080699;28;20437;-57
2021/03/05 02:23:48;;;;;;;19.33;10.87;;;5.30;99.90;;;;;;5034711;28;20961;-57
2021/03/05 02:26:35;;;;;;;14.73;9.17;;;5.50;99.90;;;;;;5088986;28;20474;-58
2021/03/05 02:29:13;;;;;;;14.53;8.90;;;5.40;99.90;;;;;;5074071;28;20739;-57
2021/03/05 02:31:42;;;;;;;18.83;10.93;;;5.40;99.90;;;;;;5090236;28;20433;-57
2021/03/05 02:34:26;;;;;;;18.13;10.00;;;5.40;99.90;;;;;;5077452;28;20606;-58
2021/03/05 02:37:06;;;;;;;16.60;11.30;;;5.30;99.90;;;;;;5069568;28;20627;-57
2021/03/05 02:39:48;;;;;;;22.20;12.10;;;5.40;99.90;;;;;;5081992;28;20493;-57
2021/03/05 02:42:20;;;;;;;18.90;11.90;;;5.50;99.90;;;;;;5071020;28;20939;-57
2021/03/05 02:44:53;;;;;;;19.20;11.97;;;5.40;99.90;;;;;;5082751;28;20437;-57
2021/03/05 02:47:21;;;;;;;25.10;13.90;;;5.30;99.90;;;;;;5077209;28;20565;-58
2021/03/05 02:49:51;;;;;;;24.23;14.03;;;5.40;99.90;;;;;;5082667;28;20449;-58
2021/03/05 02:52:19;;;;;;;22.10;12.50;;;5.40;99.90;;;;;;5082771;28;21018;-58
2021/03/05 02:54:51;;;;;;;21.87;13.60;;;5.40;99.90;;;;;;5074362;28;20516;-58
2021/03/05 02:57:19;;;;;;;27.07;13.10;;;5.30;99.90;;;;;;5083905;28;20434;-58
2021/03/05 02:59:46;;;;;;;22.17;12.80;;;5.30;99.90;;;;;;5081033;28;20832;-58
2021/03/05 03:02:13;;;;;;;22.50;12.17;;;5.40;99.90;;;;;;5082478;28;20461;-57
2021/03/05 03:04:43;;;;;;;23.50;13.40;;;5.40;99.90;;;;;;5082263;28;20444;-57
2021/03/05 03:07:11;;;;;;;18.97;11.73;;;5.40;99.90;;;;;;5081634;28;20464;-57
2021/03/05 03:09:39;;;;;;;23.30;12.83;;;5.40;99.90;;;;;;5086859;28;20433;-58
2021/03/05 03:12:08;;;;;;;20.87;12.90;;;5.50;99.90;;;;;;5081200;28;20438;-58
2021/03/05 03:14:36;;;;;;;21.50;13.20;;;5.40;99.90;;;;;;5082994;28;20491;-58
2021/03/05 03:17:02;;;;;;;23.17;13.30;;;5.40;99.90;;;;;;5081004;28;20436;-58
2021/03/05 03:19:28;;;;;;;20.57;10.90;;;5.40;99.90;;;;;;5082613;28;20460;-57
2021/03/05 03:21:53;;;;;;;22.77;12.50;;;5.30;99.90;;;;;;5079408;28;20206;-58
2021/03/05 03:24:19;;;;;;;23.07;13.57;;;5.20;99.90;;;;;;5084201;28;20505;-57
2021/03/05 03:26:45;;;;;;;24.20;12.60;;;5.20;99.90;;;;;;5086544;28;20245;-57
2021/03/05 03:29:11;;;;;;;26.53;13.20;;;5.20;99.90;;;;;;5084062;28;20436;-57
2021/03/05 03:31:40;;;;;;;23.30;11.97;;;5.20;99.90;;;;;;5081766;28;20171;-57
2021/03/05 03:34:07;;;;;;;24.67;12.63;;;5.20;99.90;;;;;;5077839;28;20266;-58
2021/03/05 03:36:37;;;;;;;19.47;12.33;;;5.30;99.90;;;;;;5086924;28;20487;-57
2021/03/05 03:39:08;;;;;;;23.10;12.30;;;5.30;99.90;;;;;;5074589;28;20468;-57
2021/03/05 03:41:36;;;;;;;21.50;11.40;;;5.50;99.90;;;;;;5082935;28;21014;-57
2021/03/05 03:44:07;;;;;;;20.03;11.67;;;5.50;99.90;;;;;;5087736;28;20717;-57
2021/03/05 03:46:37;;;;;;;21.03;11.70;;;5.50;99.90;;;;;;5077460;28;20462;-57
2021/03/05 03:49:09;;;;;;;22.70;12.10;;;5.60;99.90;;;;;;5076004;28;20432;-57
2021/03/05 03:51:41;;;;;;;21.03;10.83;;;5.60;99.90;;;;;;5083137;28;20432;-57
2021/03/05 03:54:08;;;;;;;16.60;10.10;;;5.50;99.90;;;;;;5072142;28;20452;-57
2021/03/05 03:56:36;;;;;;;22.47;10.97;;;5.50;99.90;;;;;;5073068;28;20896;-57
2021/03/05 03:59:02;;;;;;;17.00;10.20;;;5.30;99.90;;;;;;5083787;28;21639;-57
2021/03/05 04:01:31;;;;;;;16.37;9.93;;;5.20;99.90;;;;;;5074922;28;20447;-57
2021/03/05 04:03:58;;;;;;;26.57;8.00;;;5.00;99.90;;;;;;5076807;28;20477;-57
2021/03/05 04:06:26;;;;;;;17.17;9.70;;;5.00;99.90;;;;;;5083044;28;20489;-57
2021/03/05 04:08:53;;;;;;;14.90;8.80;;;4.90;99.90;;;;;;5076130;28;20438;-58
2021/03/05 04:11:20;;;;;;;19.20;10.07;;;4.90;99.90;;;;;;5087058;28;20436;-57
2021/03/05 04:13:46;;;;;;;14.20;9.57;;;4.80;99.90;;;;;;5083389;28;20784;-57
2021/03/05 04:16:12;;;;;;;16.93;10.20;;;4.80;99.90;;;;;;5073394;28;20436;-58
2021/03/05 04:18:39;;;;;;;18.43;10.47;;;4.70;99.90;;;;;;5076510;28;20515;-58
2021/03/05 04:21:13;;;;;;;19.00;10.67;;;4.90;99.90;;;;;;5089719;28;20671;-57
2021/03/05 04:23:39;;;;;;;17.00;10.87;;;5.00;99.90;;;;;;5085735;28;20433;-57
2021/03/05 04:26:05;;;;;;;17.30;10.40;;;5.00;99.90;;;;;;5081960;28;20761;-57
2021/03/05 04:28:30;;;;;;;25.33;11.57;;;4.90;99.90;;;;;;5079602;28;20641;-58
2021/03/05 04:30:56;;;;;;;20.50;11.57;;;2.90;99.90;;;;;;5080493;28;20178;-57
2021/03/05 04:33:22;;;;;;;21.57;12.47;;;4.80;99.90;;;;;;5080931;28;20668;-57
2021/03/05 04:35:47;;;;;;;18.07;10.93;;;4.80;99.90;;;;;;5085074;28;20428;-58
2021/03/05 04:38:13;;;;;;;19.30;10.90;;;4.80;99.90;;;;;;5078003;28;20189;-57
2021/03/05 04:40:39;;;;;;;18.20;10.63;;;4.90;99.90;;;;;;5073976;28;20186;-57
2021/03/05 04:43:05;;;;;;;9.53;6.20;;;4.90;99.90;;;;;;5075809;28;20437;-57
2021/03/05 04:45:30;;;;;;;4.03;3.30;;;4.60;99.90;;;;;;5079086;28;20225;-57
2021/03/05 04:47:56;;;;;;;5.10;3.53;;;4.30;99.90;;;;;;5087658;28;20182;-57
2021/03/05 04:50:22;;;;;;;4.97;3.63;;;;;;;;;;5082407;28;20301;-56
2021/03/05 04:52:47;;;;;;;4.40;4.00;;;3.80;99.90;;;;;;5083146;28;20197;-57
2021/03/05 04:55:13;;;;;;;6.47;3.83;;;3.70;99.90;;;;;;5075782;28;20436;-57
2021/03/05 04:57:39;;;;;;;6.00;4.27;;;3.70;99.90;;;;;;5081563;28;20185;-57
2021/03/05 05:00:05;;;;;;;8.27;4.97;;;3.60;99.90;;;;;;5077907;28;20186;-57
2021/03/05 05:02:31;;;;;;;5.80;4.50;;;3.70;99.90;;;;;;5082161;28;20199;-57
2021/03/05 05:04:56;;;;;;;9.07;5.40;;;3.80;99.90;;;;;;5076797;28;20426;-57
2021/03/05 05:07:22;;;;;;;6.40;3.80;;;3.70;99.90;;;;;;5075184;28;20281;-57
2021/03/05 05:09:47;;;;;;;6.27;4.70;;;3.60;99.90;;;;;;5086712;28;20237;-57
2021/03/05 05:12:13;;;;;;;5.90;4.47;;;3.60;99.90;;;;;;5088204;28;20175;-58
2021/03/05 05:14:38;;;;;;;4.53;3.33;;;3.70;99.90;;;;;;5092624;28;20265;-57
2021/03/05 05:17:04;;;;;;;7.30;3.93;;;3.80;99.90;;;;;;5078966;28;20180;-58
2021/03/05 05:19:30;;;;;;;6.17;3.73;;;3.80;99.90;;;;;;5084493;28;20194;-58
2021/03/05 05:21:55;;;;;;;3.27;2.80;;;3.70;99.90;;;;;;5094534;28;20185;-58
2021/03/05 05:24:21;;;;;;;5.97;3.17;;;3.70;99.90;;;;;;5078893;28;20195;-58
2021/03/05 05:26:47;;;;;;;3.67;3.13;;;3.70;99.90;;;;;;5080415;28;20658;-58
2021/03/05 05:29:13;;;;;;;4.10;2.90;;;3.60;99.90;;;;;;5091199;28;20521;-58
2021/03/05 05:31:38;;;;;;;4.90;3.00;;;3.60;99.90;;;;;;5088331;28;20434;-57
2021/03/05 05:34:04;;;;;;;2.77;2.20;;;3.60;99.90;;;;;;5094510;28;20296;-57
2021/03/05 05:36:29;;;;;;;3.70;2.93;;;3.60;99.90;;;;;;5078306;28;20279;-57
2021/03/05 05:38:55;;;;;;;5.30;3.27;;;3.60;99.90;;;;;;5085759;28;20193;-58
2021/03/05 05:41:23;;;;;;;2.73;2.40;;;3.50;99.90;;;;;;5073243;28;20174;-58
2021/03/05 05:43:49;;;;;;;5.97;3.40;;;3.40;99.90;;;;;;5088390;28;20192;-58
2021/03/05 05:46:17;;;;;;;3.90;3.40;;;3.20;99.90;;;;;;5089377;28;20482;-57
2021/03/05 05:48:46;;;;;;;4.00;3.20;;;3.30;99.90;;;;;;5077448;28;20661;-58
2021/03/05 05:51:21;;;;;;;6.43;4.43;;;3.30;99.90;;;;;;5080992;28;20971;-58
2021/03/05 05:53:47;;;;;;;5.80;4.53;;;3.40;99.90;;;;;;5076539;28;20447;-58
2021/03/05 05:56:18;;;;;;;9.30;6.20;;;3.50;99.90;;;;;;5078116;28;20428;-58
2021/03/05 05:58:44;;;;;;;8.97;7.57;;;3.60;99.90;;;;;;5090132;28;20448;-58
2021/03/05 06:01:11;;;;;;;10.10;7.23;;;3.70;99.90;;;;;;5082308;28;20452;-58
2021/03/05 06:03:37;;;;;;;10.47;7.30;;;3.70;99.90;;;;;;5082829;28;20560;-59
2021/03/05 06:06:03;;;;;;;7.67;4.37;;;3.60;99.90;;;;;;5092204;28;20565;-58
2021/03/05 06:08:29;;;;;;;8.63;7.00;;;3.80;99.90;;;;;;5089768;28;20549;-59
2021/03/05 06:10:56;;;;;;;9.30;6.57;;;3.70;99.90;;;;;;5088629;28;20190;-58
2021/03/05 06:13:25;;;;;;;9.00;6.80;;;3.60;99.90;;;;;;5078503;28;20450;-58
2021/03/05 06:16:17;;;;;;;10.67;7.10;;;3.50;99.90;;;;;;5079209;28;20442;-58
2021/03/05 06:18:44;;;;;;;12.27;8.40;;;3.50;99.90;;;;;;5080139;28;20460;-58
2021/03/05 06:21:10;;;;;;;10.87;8.00;;;3.50;99.90;;;;;;5084311;28;20812;-57
2021/03/05 06:23:55;;;;;;;10.20;7.70;;;3.60;99.90;;;;;;5083607;28;20488;-58
2021/03/05 06:26:21;;;;;;;11.10;8.40;;;3.70;99.90;;;;;;5081992;28;20472;-58
2021/03/05 06:29:06;;;;;;;12.17;7.57;;;3.70;99.90;;;;;;5085904;28;20436;-58
2021/03/05 06:31:33;;;;;;;10.20;7.67;;;3.60;99.90;;;;;;5089032;28;20826;-58
2021/03/05 06:34:01;;;;;;;9.30;7.47;;;3.70;99.90;;;;;;5076458;28;20478;-58
2021/03/05 06:36:27;;;;;;;8.77;6.43;;;3.70;99.90;;;;;;5084460;28;20452;-58
2021/03/05 06:38:53;;;;;;;9.00;6.43;;;3.90;99.90;;;;;;5083918;28;20443;-58
2021/03/05 06:41:22;;;;;;;9.67;7.50;;;3.90;99.90;;;;;;5082065;28;20454;-58
2021/03/05 06:43:52;;;;;;;9.20;7.13;;;4.00;99.90;;;;;;5087358;28;20655;-58
2021/03/05 06:46:29;;;;;;;7.80;6.30;;;4.00;99.90;;;;;;5084588;28;20954;-58
2021/03/05 06:48:56;;;;;;;8.50;6.50;;;4.30;99.90;;;;;;5084757;28;20441;-58
2021/03/05 06:51:22;;;;;;;10.97;6.80;;;4.30;99.90;;;;;;5094499;28;20439;-59
2021/03/05 06:53:48;;;;;;;7.60;6.03;;;4.40;99.90;;;;;;5080093;28;20508;-58
2021/03/05 06:56:26;;;;;;;8.47;7.03;;;4.30;99.90;;;;;;5085005;28;20925;-58
2021/03/05 06:59:08;;;;;;;10.40;7.07;;;4.30;99.90;;;;;;5083578;28;20178;-58
2021/03/05 07:01:54;;;;;;;8.17;5.00;;;4.20;99.90;;;;;;5075229;28;20439;-58
2021/03/05 07:04:23;;;;;;;7.20;5.60;;;4.30;99.90;;;;;;5077724;28;20451;-58
2021/03/05 07:07:08;;;;;;;6.03;5.33;;;4.10;99.90;;;;;;5073133;28;20510;-58
2021/03/05 07:09:39;;;;;;;7.93;4.60;;;4.20;99.90;;;;;;5084063;28;20829;-58
2021/03/05 07:12:11;;;;;;;7.20;5.07;;;4.10;99.90;;;;;;5089392;28;20958;-58
2021/03/05 07:14:39;;;;;;;6.80;4.30;;;4.30;99.90;;;;;;5082931;28;20429;-58
2021/03/05 07:17:06;;;;;;;7.67;4.17;;;4.30;99.90;;;;;;5078836;28;20444;-58
2021/03/05 07:19:33;;;;;;;7.40;5.57;;;4.40;99.90;;;;;;5089568;28;20444;-58
2021/03/05 07:22:00;;;;;;;6.37;4.90;;;4.40;99.90;;;;;;5088120;28;20887;-58
2021/03/05 07:24:27;;;;;;;6.40;5.17;;;4.40;99.90;;;;;;5081659;28;20906;-58
2021/03/05 07:26:56;;;;;;;8.10;5.80;;;4.20;99.90;;;;;;5084882;28;20524;-58
2021/03/05 07:29:25;;;;;;;8.90;6.53;;;4.30;99.90;;;;;;5085309;28;20439;-58
2021/03/05 07:32:02;;;;;;;8.30;6.73;;;4.40;99.90;;;;;;5080741;28;20443;-58
2021/03/05 07:34:29;;;;;;;11.63;7.10;;;3.40;99.90;;;;;;5083956;28;20460;-57
2021/03/05 07:37:01;;;;;;;9.43;7.30;;;4.40;99.90;;;;;;5075875;28;20965;-58
2021/03/05 07:39:48;;;;;;;10.57;7.60;;;3.90;99.90;;;;;;5077714;28;20433;-58
2021/03/05 07:42:18;;;;;;;12.20;8.13;;;3.90;99.90;;;;;;5079257;28;20450;-58
2021/03/05 07:44:45;;;;;;;9.70;6.80;;;3.90;99.90;;;;;;5084683;28;20799;-58
2021/03/05 07:47:13;;;;;;;10.37;7.73;;;4.10;99.90;;;;;;5089416;28;20548;-58
2021/03/05 07:49:40;;;;;;;8.73;7.07;;;3.90;97.10;;;;;;5079954;28;20464;-57
2021/03/05 07:52:07;;;;;;;9.73;7.97;;;3.80;77.00;;;;;;5075889;28;20436;-58
2021/03/05 07:54:39;;;;;;;9.80;7.60;;;3.90;97.00;;;;;;5073670;28;20441;-58
2021/03/05 07:57:05;;;;;;;8.90;7.60;;;4.30;53.10;;;;;;5079957;28;20443;-58
2021/03/05 07:59:40;;;;;;;8.37;7.03;;;4.30;15.80;;;;;;5083572;28;20453;-58
2021/03/05 08:02:09;;;;;;;12.10;8.07;;;4.30;15.20;;;;;;5072886;28;20970;-58
2021/03/05 08:04:50;;;;;;;8.47;6.17;;;4.30;11.80;;;;;;5083274;28;20540;-58
2021/03/05 08:07:19;;;;;;;6.73;5.93;;;4.30;1.00;;;;;;5074736;28;20465;-56
2021/03/05 08:09:44;;;;;;;8.13;6.47;;;4.30;1.00;;;;;;5075855;28;20520;-56
2021/03/05 08:12:38;;;;;;;8.83;6.57;;;4.40;1.00;;;;;;5077387;28;20500;-58
2021/03/05 08:15:06;;;;;;;10.20;6.73;;;4.40;1.00;;;;;;5083561;28;20206;-59
2021/03/05 08:17:33;;;;;;;9.30;6.97;;;4.40;1.00;;;;;;5076941;28;20441;-58
2021/03/05 08:19:59;;;;;;;10.80;7.77;;;2.80;1.00;;;;;;5080554;28;20533;-57
2021/03/05 08:22:27;;;;;;;8.17;6.30;;;4.60;1.00;;;;;;5078926;28;20525;-57
2021/03/05 08:25:13;;;;;;;9.07;7.60;;;5.10;1.00;;;;;;5083320;28;20179;-58
2021/03/05 08:27:38;;;;;;;10.40;8.53;;;5.40;1.00;;;;;;5077017;28;20488;-58
2021/03/05 08:30:11;;;;;;;9.90;7.90;;;5.80;1.00;;;;;;5077752;28;20794;-58
2021/03/05 08:32:37;;;;;;;9.10;8.17;;;6.20;1.00;;;;;;5081426;28;20197;-59
2021/03/05 08:35:05;;;;;;;9.27;7.80;;;6.30;1.00;;;;;;5078913;28;20437;-58
2021/03/05 08:37:33;;;;;;;12.50;9.00;;;6.10;1.00;;;;;;5074547;28;20434;-58
2021/03/05 08:40:14;;;;;;;10.73;9.40;;;5.80;1.00;;;;;;5072335;28;20447;-56
2021/03/05 08:42:43;;;;;;;10.33;6.80;;;5.80;1.00;;;;;;5071648;28;20429;-57
2021/03/05 08:45:10;;;;;;;10.37;8.20;;;5.60;1.00;;;;;;5072066;28;20515;-58
2021/03/05 08:47:36;;;;;;;8.40;6.30;;;4.80;1.00;;;;;;5081468;28;20831;-60
2021/03/05 08:50:03;;;;;;;9.33;7.13;;;5.00;1.00;;;;;;5078109;28;20451;-59
2021/03/05 08:52:30;;;;;;;7.97;7.17;;;5.00;1.00;;;;;;5073009;28;20522;-58
2021/03/05 08:54:56;;;;;;;9.67;8.17;;;5.00;1.00;;;;;;5078493;28;20433;-57
2021/03/05 08:57:22;;;;;;;6.60;5.20;;;5.60;1.00;;;;;;5074048;28;20519;-57
2021/03/05 08:59:53;;;;;;;5.30;3.27;;;5.60;1.00;;;;;;5072913;28;20553;-56
2021/03/05 09:02:18;;;;;;;5.37;3.90;;;5.70;1.00;;;;;;5073928;28;20574;-56
2021/03/05 09:04:44;;;;;;;4.53;3.10;;;5.60;1.00;;;;;;5073426;28;20445;-59
2021/03/05 09:07:13;;;;;;;5.17;3.40;;;5.40;1.00;;;;;;5079881;28;20592;-57
2021/03/05 09:09:39;;;;;;;5.47;4.47;;;5.60;1.00;;;;;;5080493;28;20183;-56
2021/03/05 09:12:13;;;;;;;4.53;3.10;;;5.60;1.00;;;;;;5075543;28;20437;-56
2021/03/05 09:14:39;;;;;;;12.20;4.90;;;5.50;1.00;;;;;;5083506;28;20434;-57
2021/03/05 09:17:07;;;;;;;5.17;4.00;;;5.40;1.00;;;;;;5077229;28;20449;-57
2021/03/05 09:19:37;;;;;;;5.23;4.17;;;5.50;1.00;;;;;;5073885;28;20906;-56
2021/03/05 09:22:25;;;;;;;7.50;5.27;;;5.30;1.00;;;;;;5083330;28;20938;-57
2021/03/05 09:25:09;;;;;;;4.47;4.07;;;5.20;1.00;;;;;;5076296;28;20476;-57
2021/03/05 09:27:40;;;;;;;4.40;3.90;;;5.70;1.00;;;;;;5080298;28;20464;-57
2021/03/05 09:30:19;;;;;;;7.87;5.63;;;6.10;1.00;;;;;;5078751;28;20527;-58
2021/03/05 09:32:49;;;;;;;5.60;3.70;;;5.70;1.00;;;;;;5086221;28;20432;-59
2021/03/05 09:35:16;;;;;;;7.30;5.17;;;5.40;1.00;;;;;;5091880;28;20424;-56
2021/03/05 09:37:42;;;;;;;6.03;4.10;;;5.40;1.00;;;;;;5087238;28;20424;-57
2021/03/05 09:40:09;;;;;;;2.80;2.40;;;5.20;1.00;;;;;;5079161;28;20740;-58
2021/03/05 09:42:51;;;;;;;3.30;2.97;;;5.00;1.00;;;;;;5086169;28;20179;-58
2021/03/05 09:45:38;;;;;;;5.10;3.37;;;4.90;1.00;;;;;;5087068;28;20425;-57
2021/03/05 09:48:06;;;;;;;4.93;2.20;;;6.70;1.00;;;;;;5074040;28;20448;-57
2021/03/05 09:50:32;;;;;;;5.80;3.43;;;4.60;1.00;;;;;;5086476;28;20438;-58
2021/03/05 09:53:17;;;;;;;2.93;2.17;;;4.60;1.00;;;;;;5083842;28;20429;-57
2021/03/05 09:55:50;;;;;;;6.00;3.73;;;4.80;1.00;;;;;;5070136;28;20446;-58
2021/03/05 09:58:15;;;;;;;13.43;4.47;;;5.50;1.00;;;;;;5089598;28;20853;-59
2021/03/05 10:00:41;;;;;;;6.33;2.80;;;5.50;1.00;;;;;;5085137;28;20445;-58
2021/03/05 10:03:09;;;;;;;3.97;2.80;;;5.40;1.00;;;;;;5083477;28;20189;-58
2021/03/05 10:05:36;;;;;;;9.70;4.40;;;5.30;1.00;;;;;;5074995;28;20230;-57
2021/03/05 10:08:13;;;;;;;4.17;2.40;;;5.30;1.00;;;;;;5087070;28;20440;-58
2021/03/05 10:10:59;;;;;;;2.10;1.70;;;5.70;1.00;;;;;;5081639;28;20802;-58
2021/03/05 10:13:46;;;;;;;4.33;2.47;;;5.70;1.00;;;;;;5090411;28;20436;-58
2021/03/05 10:16:14;;;;;;;2.47;2.27;;;6.30;1.00;;;;;;5080215;28;20520;-58
2021/03/05 10:18:43;;;;;;;6.70;2.53;;;6.30;1.00;;;;;;5074670;28;20437;-58
2021/03/05 10:21:13;;;;;;;2.97;2.00;;;6.50;1.00;;;;;;5082000;28;20540;-56
2021/03/05 10:23:40;;;;;;;3.13;2.10;;;6.60;1.00;;;;;;5083818;28;20495;-58
2021/03/05 10:26:17;;;;;;;1.50;1.37;;;6.80;1.00;;;;;;5081053;28;20461;-58
2021/03/05 10:28:44;;;;;;;1.30;1.20;;;6.50;1.00;;;;;;5079298;28;20508;-59
2021/03/05 10:31:10;;;;;;;5.07;2.70;;;6.50;1.00;;;;;;5075640;28;20421;-61
2021/03/05 10:33:39;;;;;;;1.33;1.23;;;6.50;1.00;;;;;;5084075;28;20897;-58
2021/03/05 10:36:05;;;;;;;3.50;1.60;;;6.50;1.00;;;;;;5078186;28;20188;-56
2021/03/05 10:38:31;;;;;;;1.73;1.23;;;5.90;1.00;;;;;;5081653;28;20445;-60
2021/03/05 10:40:57;;;;;;;2.00;1.30;;;5.90;1.00;;;;;;5081763;28;20837;-60
2021/03/05 10:43:23;;;;;;;3.07;2.40;;;5.70;1.00;;;;;;5085712;28;20437;-59
2021/03/05 10:45:49;;;;;;;2.20;1.67;;;5.70;1.00;;;;;;5081195;28;20268;-59
2021/03/05 10:48:16;;;;;;;3.50;2.10;;;5.90;1.00;;;;;;5081335;28;20186;-59
2021/03/05 10:50:41;;;;;;;6.63;2.13;;;6.30;1.00;;;;;;5088373;28;20458;-59
2021/03/05 10:53:07;;;;;;;2.60;2.10;;;6.70;1.00;;;;;;5093664;28;20817;-57
2021/03/05 10:55:33;;;;;;;9.03;3.20;;;6.70;1.00;;;;;;5078673;28;20183;-59
2021/03/05 10:57:59;;;;;;;3.37;1.67;;;7.00;1.00;;;;;;5081706;28;20175;-59
2021/03/05 11:00:25;;;;;;;1.23;1.13;;;7.00;1.00;;;;;;5084249;28;20179;-60
2021/03/05 11:02:50;;;;;;;2.23;1.10;;;7.10;1.00;;;;;;5085449;28;20430;-59
2021/03/05 11:05:17;;;;;;;2.60;1.20;;;6.70;1.00;;;;;;5088234;28;20436;-59
2021/03/05 11:07:43;;;;;;;3.73;1.60;;;6.70;1.00;;;;;;5090371;28;20265;-59
2021/03/05 11:10:09;;;;;;;7.50;1.97;;;7.00;1.00;;;;;;5085339;28;20580;-59
2021/03/05 11:12:35;;;;;;;1.90;0.93;;;7.40;1.00;;;;;;5088808;28;20191;-59
2021/03/05 11:15:03;;;;;;;1.63;1.20;;;5.70;1.00;;;;;;5076281;28;20430;-59
2021/03/05 11:17:29;;;;;;;2.97;1.03;;;8.10;1.00;;;;;;5090699;28;20182;-59
2021/03/05 11:19:55;;;;;;;1.37;1.10;;;8.10;1.00;;;;;;5082003;28;20443;-58
2021/03/05 11:22:21;;;;;;;2.33;1.30;;;7.70;1.00;;;;;;5076802;28;20667;-57
2021/03/05 11:24:46;;;;;;;3.73;1.17;;;7.60;1.00;;;;;;5084640;28;20433;-57
2021/03/05 11:27:12;;;;;;;3.07;1.23;;;7.50;1.00;;;;;;5078226;28;20277;-58
2021/03/05 11:29:37;;;;;;;1.50;1.17;;;7.50;1.00;;;;;;5089568;28;20193;-57
2021/03/05 11:32:03;;;;;;;1.10;1.00;;;7.10;1.00;;;;;;5086289;28;20325;-58
2021/03/05 11:34:29;;;;;;;0.97;0.83;;;6.70;1.00;;;;;;5084661;28;20287;-58
2021/03/05 11:36:54;;;;;;;2.20;1.10;;;6.30;1.00;;;;;;5083175;28;20182;-59
2021/03/05 11:39:20;;;;;;;0.80;0.80;;;6.10;1.00;;;;;;5090265;28;20190;-58
2021/03/05 11:41:45;;;;;;;2.70;1.87;;;5.90;1.00;;;;;;5092907;28;20235;-58
2021/03/05 11:44:11;;;;;;;1.80;1.37;;;6.40;1.00;;;;;;5083126;28;20191;-59
2021/03/05 11:46:37;;;;;;;5.40;2.13;;;9.10;1.00;;;;;;5083687;28;20243;-62
2021/03/05 11:49:03;;;;;;;2.70;1.80;;;6.60;1.00;;;;;;5081528;28;20184;-59
2021/03/05 11:51:28;;;;;;;5.27;1.73;;;6.80;1.00;;;;;;5080613;28;20433;-59
2021/03/05 11:53:54;;;;;;;1.13;1.03;;;7.40;1.00;;;;;;5085236;28;20182;-60
2021/03/05 11:56:20;;;;;;;1.97;1.60;;;7.70;1.00;;;;;;5084450;28;20611;-59
2021/03/05 11:58:45;;;;;;;2.43;1.00;;;7.50;1.00;;;;;;5084350;28;20179;-60
2021/03/05 12:01:13;;;;;;;2.40;1.20;;;7.30;1.00;;;;;;5086107;28;20183;-59
2021/03/05 12:03:41;;;;;;;1.20;1.10;;;7.20;1.00;;;;;;5087789;28;20196;-59
2021/03/05 12:06:07;;;;;;;1.20;0.97;;;8.90;1.00;;;;;;5081024;28;20469;-59
2021/03/05 12:08:33;;;;;;;2.60;1.10;;;7.00;1.00;;;;;;5071458;28;20434;-59
2021/03/05 12:10:58;;;;;;;1.30;1.03;;;7.00;1.00;;;;;;5081055;28;20219;-59
2021/03/05 12:13:24;;;;;;;1.17;0.77;;;6.90;1.00;;;;;;5081131;28;20213;-58
2021/03/05 12:15:49;;;;;;;1.63;1.10;;;6.80;1.00;;;;;;5072392;28;20599;-58
2021/03/05 12:18:15;;;;;;;1.57;0.90;;;6.90;1.00;;;;;;5080835;28;20193;-59
2021/03/05 12:20:43;;;;;;;2.40;1.40;;;6.80;1.00;;;;;;5072185;28;20203;-61
2021/03/05 12:23:16;;;;;;;1.63;1.20;;;6.90;1.00;;;;;;5084200;28;20218;-58
2021/03/05 12:25:41;;;;;;;1.07;0.97;;;6.70;1.00;;;;;;5075495;28;20515;-61
2021/03/05 12:28:07;;;;;;;3.13;1.10;;;6.70;1.00;;;;;;5075987;28;20457;-58
2021/03/05 12:30:33;;;;;;;1.60;1.10;;;6.60;1.00;;;;;;5085540;28;20198;-58
2021/03/05 12:32:58;;;;;;;0.80;0.80;;;6.80;1.00;;;;;;5080473;28;20190;-59
2021/03/05 12:35:24;;;;;;;1.43;1.03;;;6.80;1.00;;;;;;5080765;28;20168;-58
2021/03/05 12:37:50;;;;;;;2.70;1.07;;;6.80;1.00;;;;;;5080467;28;20186;-60
2021/03/05 12:40:16;;;;;;;1.67;1.00;;;6.80;1.00;;;;;;5076548;28;20205;-59
2021/03/05 12:42:42;;;;;;;2.37;1.10;;;7.00;1.00;;;;;;5084497;28;20490;-59
2021/03/05 12:45:10;;;;;;;3.30;1.47;;;7.10;1.00;;;;;;5080284;28;20434;-59
2021/03/05 12:47:36;;;;;;;1.63;1.10;;;7.40;1.00;;;;;;5085477;28;20763;-58
2021/03/05 12:50:05;;;;;;;1.90;0.93;;;7.10;1.00;;;;;;5080239;28;20841;-59
2021/03/05 12:52:30;;;;;;;2.17;1.27;;;7.00;1.00;;;;;;5071683;28;20487;-59
2021/03/05 12:54:56;;;;;;;3.33;1.03;;;7.10;1.00;;;;;;5079918;28;20923;-60
2021/03/05 12:57:22;;;;;;;2.10;1.60;;;7.20;1.00;;;;;;5086140;28;20186;-59
2021/03/05 12:59:47;;;;;;;3.47;1.40;;;7.60;1.00;;;;;;5078878;28;20449;-59
2021/03/05 13:02:13;;;;;;;0.90;0.90;;;7.90;1.00;;;;;;5080176;28;20183;-59